Time;durP1;ratioP1;P1;durP2;ratioP2;P2;SDS_P1;SDS_P2;PMS_P1;PMS_P2;Temp;Humidity;BMP_temperature;BMP_pressure;BME280_temperature;BME280_humidity;BME280_pressure;Samples;Min_cycle;Max_cycle;Signal;HPM_P1;HPM_P2
2022/12/05 00:00:11;;;;;;;64.60;34.07;;;;;;;3.57;100.00;101321.34;5066039;28;20584;-65
2022/12/05 00:02:37;;;;;;;62.90;32.67;;;;;;;3.46;100.00;101320.09;5069554;28;20235;-66
2022/12/05 00:05:05;;;;;;;70.60;34.20;;;;;;;3.55;100.00;101317.84;5062821;28;20357;-66
2022/12/05 00:07:31;;;;;;;62.40;33.20;;;;;;;3.70;100.00;101320.09;5058736;28;20281;-67
2022/12/05 00:09:58;;;;;;;66.13;33.37;;;;;;;3.78;100.00;101316.06;5058027;28;20309;-65
2022/12/05 00:12:25;;;;;;;56.07;32.20;;;;;;;3.88;100.00;101319.88;5057650;28;20238;-69
2022/12/05 00:14:51;;;;;;;62.93;33.80;;;;;;;3.74;100.00;101322.84;5069518;28;20313;-65
2022/12/05 00:17:19;;;;;;;63.23;33.17;;;;;;;3.76;100.00;101326.41;5066965;28;20336;-65
2022/12/05 00:19:46;;;;;;;68.13;31.50;;;;;;;3.79;100.00;101326.53;5056702;28;20321;-65
2022/12/05 00:22:13;;;;;;;74.33;32.07;;;;;;;3.98;100.00;101315.06;5066097;28;20316;-65
2022/12/05 00:24:40;;;;;;;63.27;33.27;;;;;;;3.98;100.00;101317.66;5065387;28;20261;-63
2022/12/05 00:27:06;;;;;;;64.80;33.50;;;;;;;3.89;100.00;101321.63;5055614;28;20238;-65
2022/12/05 00:29:33;;;;;;;63.87;33.03;;;;;;;3.80;100.00;101330.88;5055112;28;20684;-63
2022/12/05 00:32:00;;;;;;;62.53;31.30;;;;;;;3.81;100.00;101329.16;5055157;28;20761;-65
2022/12/05 00:34:28;;;;;;;68.47;34.93;;;;;;;3.73;100.00;101331.47;5066768;28;20341;-65
2022/12/05 00:36:54;;;;;;;63.37;31.63;;;;;;;3.89;100.00;101325.09;5061868;28;20421;-64
2022/12/05 00:39:21;;;;;;;69.97;35.17;;;;;;;3.89;100.00;101330.31;5063802;28;20632;-64
2022/12/05 00:41:48;;;;;;;60.37;32.10;;;;;;;3.85;100.00;101324.97;5065411;28;20237;-64
2022/12/05 00:44:14;;;;;;;70.13;35.57;;;;;;;3.71;100.00;101327.94;5078706;28;20340;-64
2022/12/05 00:46:41;;;;;;;64.50;34.73;;;;;;;3.82;100.00;101331.78;5065701;28;20268;-63
2022/12/05 00:49:08;;;;;;;68.57;33.90;;;;;;;3.92;100.00;101326.94;5061223;28;20400;-64
2022/12/05 00:51:38;;;;;;;69.27;34.57;;;;;;;3.63;100.00;101329.38;5074485;28;20255;-63
2022/12/05 00:54:06;;;;;;;72.90;34.47;;;;;;;3.57;100.00;101326.53;5056826;28;20241;-65
2022/12/05 00:56:33;;;;;;;65.07;33.23;;;;;;;3.83;100.00;101323.19;5071053;28;20700;-63
2022/12/05 00:59:01;;;;;;;64.40;32.77;;;;;;;3.79;100.00;101318.72;5076648;28;20312;-65
2022/12/05 01:01:31;;;;;;;70.73;34.73;;;;;;;3.69;100.00;101326.13;5078227;28;20650;-65
2022/12/05 01:03:59;;;;;;;61.77;33.83;;;;;;;3.58;100.00;101321.44;5057109;28;20225;-64
2022/12/05 01:06:26;;;;;;;70.10;37.63;;;;;;;3.82;100.00;101320.53;5057734;28;20230;-65
2022/12/05 01:08:55;;;;;;;64.50;34.87;;;;;;;3.76;100.00;101310.81;5063547;28;20253;-64
2022/12/05 01:11:23;;;;;;;58.10;31.93;;;;;;;3.91;100.00;101314.78;5071799;28;20249;-63
2022/12/05 01:13:50;;;;;;;68.33;34.43;;;;;;;3.80;100.00;101307.50;5082898;28;20245;-64
2022/12/05 01:16:18;;;;;;;63.50;33.13;;;;;;;3.73;100.00;101309.84;5064118;28;20632;-64
2022/12/05 01:18:45;;;;;;;60.97;33.77;;;;;;;3.70;100.00;101296.72;5058699;28;20245;-63
2022/12/05 01:21:12;;;;;;;57.93;31.30;;;;;;;3.72;100.00;101292.47;5074230;28;20237;-62
2022/12/05 01:23:38;;;;;;;58.23;33.43;;;;;;;3.70;100.00;101295.00;5068797;28;20258;-64
2022/12/05 01:26:09;;;;;;;63.07;31.60;;;;;;;3.65;100.00;101291.38;5067753;28;20336;-63
2022/12/05 01:28:36;;;;;;;62.83;34.67;;;;;;;3.45;100.00;101294.97;5063347;28;20283;-63
2022/12/05 01:31:05;;;;;;;57.00;33.60;;;;;;;3.67;100.00;101292.31;5065502;28;20227;-63
2022/12/05 01:33:32;;;;;;;62.70;32.97;;;;;;;3.51;100.00;101290.88;5070358;28;20485;-64
2022/12/05 01:35:59;;;;;;;60.60;34.37;;;;;;;3.68;100.00;101294.06;5052802;28;20242;-63
2022/12/05 01:38:26;;;;;;;63.90;31.50;;;;;;;3.99;100.00;101285.63;5065918;28;20681;-65
2022/12/05 01:41:00;;;;;;;60.77;34.20;;;;;;;3.92;100.00;101293.16;5069900;28;20234;-67
2022/12/05 01:43:28;;;;;;;65.17;34.50;;;;;;;3.86;100.00;101287.75;5066714;28;20773;-66
2022/12/05 01:45:54;;;;;;;66.13;32.50;;;;;;;3.80;100.00;101286.72;5058865;28;20729;-66
2022/12/05 01:48:24;;;;;;;59.77;32.70;;;;;;;3.76;100.00;101292.66;5057303;28;20328;-66
2022/12/05 01:50:51;;;;;;;64.33;32.67;;;;;;;3.75;100.00;101283.06;5066514;28;25174;-66
2022/12/05 01:53:18;;;;;;;61.77;31.57;;;;;;;3.76;100.00;101290.06;5059309;28;20626;-65
2022/12/05 01:55:45;;;;;;;62.40;32.57;;;;;;;3.62;100.00;101286.06;5064421;28;20250;-64
2022/12/05 01:58:12;;;;;;;64.63;34.70;;;;;;;3.47;100.00;101281.19;5058363;28;20325;-64
2022/12/05 02:00:40;;;;;;;62.50;35.27;;;;;;;3.49;100.00;101279.53;5060077;28;20225;-64
2022/12/05 02:03:10;;;;;;;64.37;34.97;;;;;;;3.53;100.00;101285.72;5062042;28;20331;-63
2022/12/05 02:05:37;;;;;;;66.20;32.80;;;;;;;3.48;100.00;101280.38;5050877;28;20322;-64
2022/12/05 02:08:06;;;;;;;67.03;35.47;;;;;;;3.56;100.00;101270.28;5052388;28;20312;-63
2022/12/05 02:10:37;;;;;;;66.93;34.63;;;;;;;3.69;100.00;101276.78;5059540;28;20226;-64
2022/12/05 02:13:11;;;;;;;70.00;33.43;;;;;;;3.85;100.00;101278.19;5049634;28;20574;-64
2022/12/05 02:15:44;;;;;;;62.67;33.53;;;;;;;3.76;100.00;101282.25;5069095;28;20747;-63
2022/12/05 02:18:23;;;;;;;60.63;33.57;;;;;;;3.63;100.00;101282.66;5074486;28;20243;-63
2022/12/05 02:21:21;;;;;;;58.03;32.87;;;;;;;3.68;100.00;101278.47;5057626;28;20330;-63
2022/12/05 02:24:06;;;;;;;68.40;37.63;;;;;;;3.55;100.00;101279.78;5048158;28;21918;-63
2022/12/05 02:27:03;;;;;;;63.10;33.77;;;;;;;3.47;100.00;101286.38;5074823;28;20301;-64
2022/12/05 02:29:44;;;;;;;65.30;34.10;;;;;;;3.47;100.00;101280.31;5077308;28;20245;-64
2022/12/05 02:32:15;;;;;;;57.87;30.53;;;;;;;3.60;100.00;101282.53;5067800;28;20241;-65
2022/12/05 02:34:47;;;;;;;56.60;31.97;;;;;;;3.65;100.00;101282.69;5080721;28;20230;-65
2022/12/05 02:37:17;;;;;;;54.83;30.50;;;;;;;3.74;100.00;101283.91;5063756;28;20245;-63
2022/12/05 02:39:47;;;;;;;60.30;33.90;;;;;;;3.81;100.00;101287.59;5064522;28;20336;-65
2022/12/05 02:42:18;;;;;;;72.07;33.83;;;;;;;3.82;100.00;101290.25;5064942;28;20271;-63
2022/12/05 02:44:50;;;;;;;64.43;32.47;;;;;;;3.70;100.00;101289.81;5070453;28;20334;-63
2022/12/05 02:47:19;;;;;;;53.83;31.60;;;;;;;3.75;100.00;101288.25;5077565;28;20242;-63
2022/12/05 02:49:46;;;;;;;58.47;32.37;;;;;;;3.65;100.00;101286.19;5071592;28;20317;-63
2022/12/05 02:52:15;;;;;;;58.30;30.83;;;;;;;3.55;100.00;101286.69;5062995;28;20253;-64
2022/12/05 02:54:47;;;;;;;58.57;31.97;;;;;;;3.70;100.00;101284.63;5077121;28;20275;-64
2022/12/05 02:57:15;;;;;;;57.90;32.50;;;;;;;3.68;100.00;101278.47;5063925;28;20234;-65
2022/12/05 02:59:42;;;;;;;60.83;31.80;;;;;;;3.53;100.00;101270.16;5059457;28;20234;-65
2022/12/05 03:02:23;;;;;;;60.77;30.70;;;;;;;3.46;100.00;101273.34;5057923;28;20254;-65
2022/12/05 03:04:50;;;;;;;59.97;30.37;;;;;;;3.55;100.00;101271.09;5067566;28;20257;-65
2022/12/05 03:07:18;;;;;;;54.07;31.13;;;;;;;3.35;100.00;101265.19;5066621;28;20402;-65
2022/12/05 03:09:48;;;;;;;59.63;31.07;;;;;;;3.37;100.00;101273.00;5062101;28;20234;-65
2022/12/05 03:12:18;;;;;;;58.37;29.57;;;;;;;3.46;100.00;101268.16;5060705;28;20321;-66
2022/12/05 03:14:48;;;;;;;57.20;31.40;;;;;;;3.50;100.00;101259.66;5069306;28;20310;-67
2022/12/05 03:17:20;;;;;;;61.40;30.80;;;;;;;3.55;100.00;101259.00;5067453;28;20684;-68
2022/12/05 03:19:50;;;;;;;53.13;28.13;;;;;;;3.48;100.00;101256.16;5065306;28;20238;-66
2022/12/05 03:22:22;;;;;;;54.00;30.30;;;;;;;3.42;100.00;101266.28;5055227;28;20264;-68
2022/12/05 03:24:49;;;;;;;55.07;27.67;;;;;;;3.44;100.00;101262.03;5065829;28;20242;-68
2022/12/05 03:27:22;;;;;;;49.10;26.97;;;;;;;3.40;100.00;101253.25;5065218;28;20229;-68
2022/12/05 03:29:51;;;;;;;51.53;28.13;;;;;;;3.33;100.00;101261.63;5075863;28;20279;-69
2022/12/05 03:32:24;;;;;;;44.03;26.37;;;;;;;3.29;100.00;101259.75;5069076;28;20400;-68
2022/12/05 03:34:58;;;;;;;51.13;27.07;;;;;;;3.14;100.00;101265.28;5072433;28;20237;-68
2022/12/05 03:37:30;;;;;;;47.13;26.23;;;;;;;3.39;100.00;101263.59;5060301;28;20254;-70
2022/12/05 03:40:06;;;;;;;44.93;25.13;;;;;;;3.38;100.00;101269.59;5075895;28;21158;-70
2022/12/05 03:42:35;;;;;;;48.10;26.87;;;;;;;3.46;100.00;101268.16;5064726;28;20238;-66
2022/12/05 03:45:06;;;;;;;44.27;24.87;;;;;;;3.57;100.00;101261.66;5068128;28;20317;-65
2022/12/05 03:47:41;;;;;;;46.23;25.13;;;;;;;3.57;100.00;101259.94;5073364;28;20716;-64
2022/12/05 03:50:12;;;;;;;41.73;24.73;;;;;;;3.68;100.00;101265.50;5074694;28;20730;-67
2022/12/05 03:52:42;;;;;;;39.77;24.70;;;;;;;3.53;100.00;101255.47;5063077;28;20234;-65
2022/12/05 03:55:12;;;;;;;41.40;23.37;;;;;;;3.28;100.00;101261.47;5064401;28;20284;-65
2022/12/05 03:57:43;;;;;;;49.13;25.53;;;;;;;3.38;100.00;101259.22;5065852;28;20268;-64
2022/12/05 04:00:11;;;;;;;38.73;22.93;;;;;;;3.25;100.00;101258.75;5070628;28;20237;-64
2022/12/05 04:02:44;;;;;;;40.57;22.63;;;;;;;3.23;100.00;101260.44;5065149;28;20282;-63
2022/12/05 04:05:17;;;;;;;37.00;23.57;;;;;;;3.13;100.00;101258.31;5055083;28;20732;-63
2022/12/05 04:07:46;;;;;;;42.50;24.10;;;;;;;3.11;100.00;101257.38;5062626;28;20283;-64
2022/12/05 04:10:15;;;;;;;38.23;23.67;;;;;;;3.42;100.00;101256.78;5069561;28;20891;-76
2022/12/05 04:12:43;;;;;;;45.33;25.13;;;;;;;3.44;100.00;101256.84;5061839;28;20287;-64
2022/12/05 04:15:13;;;;;;;37.37;23.97;;;;;;;3.53;100.00;101249.38;5070986;28;20318;-64
2022/12/05 04:17:47;;;;;;;44.00;24.80;;;;;;;3.49;100.00;101257.91;5077524;28;20244;-62
2022/12/05 04:23:01;;;;;;;42.00;25.37;;;;;;;3.28;100.00;101256.28;5068583;28;20349;-63
2022/12/05 04:25:36;;;;;;;41.93;24.63;;;;;;;3.23;100.00;101263.03;5066817;28;20242;-63
2022/12/05 04:28:12;;;;;;;45.17;26.17;;;;;;;3.34;100.00;101259.13;5069010;28;20229;-63
2022/12/05 04:30:44;;;;;;;37.73;24.63;;;;;;;3.38;100.00;101261.81;5077678;28;20663;-65
2022/12/05 04:33:15;;;;;;;46.83;26.27;;;;;;;3.35;100.00;101260.88;5076880;28;20345;-64
2022/12/05 04:35:48;;;;;;;37.73;24.60;;;;;;;3.46;100.00;101244.81;5080185;28;20819;-63
2022/12/05 04:38:19;;;;;;;38.33;23.07;;;;;;;3.46;100.00;101253.47;5063191;28;20299;-63
2022/12/05 04:40:51;;;;;;;41.47;24.07;;;;;;;3.45;100.00;101250.84;5049014;28;20253;-61
2022/12/05 04:43:19;;;;;;;42.70;24.67;;;;;;;3.28;100.00;101253.69;5063130;28;20837;-63
2022/12/05 04:45:47;;;;;;;47.67;25.20;;;;;;;3.39;100.00;101256.69;5065208;28;20662;-63
2022/12/05 04:48:17;;;;;;;35.40;23.87;;;;;;;3.22;100.00;101256.06;5060540;28;20308;-63
2022/12/05 04:50:46;;;;;;;41.13;24.60;;;;;;;3.21;100.00;101256.00;5056595;28;20724;-64
2022/12/05 04:53:13;;;;;;;43.70;23.87;;;;;;;3.33;100.00;101259.03;5041809;28;20322;-63
2022/12/05 04:55:43;;;;;;;39.27;23.27;;;;;;;3.26;100.00;101257.03;5054882;28;20720;-63
2022/12/05 04:58:12;;;;;;;37.37;23.93;;;;;;;3.28;100.00;101260.59;5058667;28;20239;-65
2022/12/05 05:00:46;;;;;;;33.63;22.17;;;;;;;3.30;100.00;101259.84;5067118;28;20265;-62
2022/12/05 05:03:22;;;;;;;38.03;22.87;;;;;;;3.50;100.00;101254.47;5064000;28;20305;-63
2022/12/05 05:05:50;;;;;;;39.47;22.83;;;;;;;3.43;100.00;101253.34;5061148;28;20219;-65
2022/12/05 05:08:18;;;;;;;36.37;22.23;;;;;;;3.51;100.00;101253.63;5073660;28;20233;-62
2022/12/05 05:10:51;;;;;;;40.00;25.13;;;;;;;3.18;100.00;101254.16;5062790;28;20846;-65
2022/12/05 05:13:17;;;;;;;31.53;19.77;;;;;;;3.28;100.00;101258.88;5064408;28;20728;-63
2022/12/05 05:15:44;;;;;;;36.47;21.70;;;;;;;3.29;100.00;101264.94;5077817;28;20226;-64
2022/12/05 05:18:11;;;;;;;37.90;21.60;;;;;;;3.42;100.00;101261.97;5075741;28;20240;-66
2022/12/05 05:20:39;;;;;;;33.87;21.40;;;;;;;3.49;100.00;101252.72;5076135;28;20237;-65
2022/12/05 05:23:06;;;;;;;34.97;21.17;;;;;;;3.44;100.00;101259.44;5078094;28;20237;-65
2022/12/05 05:25:33;;;;;;;36.70;20.87;;;;;;;3.43;100.00;101249.88;5068617;28;20226;-64
2022/12/05 05:28:00;;;;;;;35.70;21.33;;;;;;;3.47;100.00;101254.34;5059542;28;20249;-63
2022/12/05 05:30:27;;;;;;;37.90;21.73;;;;;;;3.41;100.00;101262.81;5050816;28;20283;-63
2022/12/05 05:32:54;;;;;;;31.77;20.20;;;;;;;3.58;100.00;101255.66;5064248;28;20656;-63
2022/12/05 05:35:21;;;;;;;32.53;19.57;;;;;;;3.38;100.00;101265.31;5065301;28;20747;-63
2022/12/05 05:37:50;;;;;;;33.03;20.07;;;;;;;3.54;100.00;101256.34;5069284;28;20237;-63
2022/12/05 05:40:17;;;;;;;30.77;19.30;;;;;;;3.45;100.00;101253.44;5055779;28;20319;-64
2022/12/05 05:42:45;;;;;;;30.97;19.70;;;;;;;3.40;100.00;101260.16;5057219;28;20253;-64
2022/12/05 05:45:13;;;;;;;30.33;19.53;;;;;;;3.55;100.00;101252.94;5061607;28;20221;-63
2022/12/05 05:47:40;;;;;;;33.50;19.40;;;;;;;3.58;100.00;101253.06;5063862;28;20229;-66
2022/12/05 05:50:08;;;;;;;30.00;19.07;;;;;;;3.40;100.00;101247.19;5072403;28;20249;-66
2022/12/05 05:52:35;;;;;;;29.97;19.13;;;;;;;3.49;100.00;101255.31;5068993;28;20230;-66
2022/12/05 05:55:05;;;;;;;28.80;18.17;;;;;;;3.59;100.00;101255.69;5073335;28;20252;-65
2022/12/05 05:57:32;;;;;;;25.53;17.97;;;;;;;3.48;100.00;101257.03;5073541;28;20241;-65
2022/12/05 05:59:59;;;;;;;23.10;15.97;;;;;;;3.45;100.00;101267.28;5079079;28;20695;-68
2022/12/05 06:02:26;;;;;;;25.37;17.57;;;;;;;3.58;100.00;101269.50;5075163;28;20243;-68
2022/12/05 06:04:53;;;;;;;24.27;15.13;;;;;;;3.45;100.00;101274.19;5082327;28;20302;-65
2022/12/05 06:07:20;;;;;;;23.83;16.17;;;;;;;3.57;100.00;101269.44;5080608;28;20611;-67
2022/12/05 06:09:47;;;;;;;26.23;16.27;;;;;;;3.71;100.00;101268.22;5078272;28;20233;-67
2022/12/05 06:12:15;;;;;;;23.20;15.37;;;;;;;3.45;100.00;101274.19;5078499;28;20574;-66
2022/12/05 06:14:42;;;;;;;21.47;14.70;;;;;;;3.65;100.00;101265.41;5057580;28;20646;-67
2022/12/05 06:17:09;;;;;;;21.97;14.67;;;;;;;3.57;100.00;101269.44;5070777;28;20275;-67
2022/12/05 06:19:36;;;;;;;23.43;15.77;;;;;;;3.55;100.00;101265.91;5064365;28;20336;-66
2022/12/05 06:22:03;;;;;;;23.40;15.37;;;;;;;3.56;100.00;101270.28;5062083;28;20244;-63
2022/12/05 06:24:30;;;;;;;17.57;13.57;;;;;;;3.47;100.00;101275.13;5060929;28;20264;-62
2022/12/05 06:26:57;;;;;;;23.40;13.03;;;;;;;3.46;100.00;101273.34;5068507;28;20784;-66
2022/12/05 06:29:25;;;;;;;23.70;13.77;;;;;;;3.53;100.00;101265.84;5061277;28;20283;-64
2022/12/05 06:31:52;;;;;;;22.07;13.77;;;;;;;3.35;100.00;101280.75;5070004;28;20234;-64
2022/12/05 06:34:19;;;;;;;20.00;14.03;;;;;;;3.66;100.00;101282.75;5062610;28;20314;-64
2022/12/05 06:36:45;;;;;;;18.27;12.63;;;;;;;3.69;100.00;101277.69;5061709;28;20435;-62
2022/12/05 06:39:12;;;;;;;20.37;14.17;;;;;;;3.65;100.00;101286.19;5062253;28;20551;-63
2022/12/05 06:41:39;;;;;;;20.87;12.87;;;;;;;3.70;100.00;101284.63;5070420;28;20233;-63
2022/12/05 06:44:06;;;;;;;20.37;14.20;;;;;;;3.55;100.00;101289.28;5080650;28;20254;-64
2022/12/05 06:46:34;;;;;;;25.30;14.40;;;;;;;3.57;100.00;101285.88;5079948;28;20456;-62
2022/12/05 06:49:01;;;;;;;22.27;13.47;;;;;;;3.59;100.00;101288.56;5082457;28;20229;-63
2022/12/05 06:51:28;;;;;;;20.27;13.77;;;;;;;3.62;100.00;101291.28;5081067;28;20253;-64
2022/12/05 06:53:55;;;;;;;18.83;13.67;;;;;;;3.71;100.00;101290.69;5076732;28;20357;-64
2022/12/05 06:56:22;;;;;;;22.50;14.63;;;;;;;3.66;100.00;101293.13;5069080;28;20906;-63
2022/12/05 06:58:51;;;;;;;18.47;13.33;;;;;;;3.88;100.00;101296.50;5063888;28;20261;-63
2022/12/05 07:04:07;;;;;;;24.47;13.13;;;;;;;3.76;100.00;101299.56;5067040;28;20250;-63
2022/12/05 07:06:34;;;;;;;21.13;13.57;;;;;;;3.61;100.00;101307.66;5059981;28;20276;-63
2022/12/05 07:09:01;;;;;;;17.50;13.37;;;;;;;3.72;100.00;101301.16;5069892;28;20246;-65
2022/12/05 07:11:28;;;;;;;24.63;14.30;;;;;;;3.70;100.00;101299.31;5071360;28;20235;-65
2022/12/05 07:13:55;;;;;;;20.23;13.77;;;;;;;3.50;100.00;101301.19;5070976;28;20560;-64
2022/12/05 07:16:22;;;;;;;21.90;14.93;;;;;;;3.64;100.00;101304.28;5067214;28;20252;-65
2022/12/05 07:18:50;;;;;;;17.17;13.10;;;;;;;3.80;100.00;101304.03;5076733;28;20274;-66
2022/12/05 07:21:20;;;;;;;21.07;14.53;;;;;;;3.58;100.00;101311.03;5056095;28;20333;-66
2022/12/05 07:23:48;;;;;;;20.60;15.33;;;;;;;3.48;100.00;101308.06;5075930;28;20228;-67
2022/12/05 07:26:17;;;;;;;21.33;14.03;;;;;;;3.52;100.00;101308.22;5081629;28;20233;-67
2022/12/05 07:28:44;;;;;;;21.60;15.30;;;;;;;3.38;100.00;101311.13;5080409;28;20317;-67
2022/12/05 07:31:14;;;;;;;21.73;14.50;;;;;;;3.28;100.00;101305.59;5063414;28;20316;-66
2022/12/05 07:33:41;;;;;;;20.63;14.50;;;;;;;3.60;100.00;101303.28;5062364;28;20626;-65
2022/12/05 07:36:10;;;;;;;23.90;14.63;;;;;;;3.81;100.00;101316.16;5060907;28;20321;-67
2022/12/05 07:38:40;;;;;;;23.63;14.77;;;;;;;3.43;100.00;101309.59;5070464;28;20585;-66
2022/12/05 07:41:08;;;;;;;18.03;13.90;;;;;;;3.41;100.00;101308.66;5075121;28;20226;-66
2022/12/05 07:43:35;;;;;;;25.53;13.63;;;;;;;3.56;100.00;101311.81;5065733;28;20954;-63
2022/12/05 07:46:03;;;;;;;17.83;14.27;;;;;;;3.55;100.00;101308.34;5063263;28;20279;-64
2022/12/05 07:48:30;;;;;;;19.20;13.53;;;;;;;3.64;100.00;101306.88;5073174;28;20345;-64
2022/12/05 07:51:00;;;;;;;20.97;14.20;;;;;;;3.71;100.00;101312.34;5079440;28;20275;-63
2022/12/05 07:53:27;;;;;;;20.63;14.73;;;;;;;3.66;100.00;101313.03;5080081;28;20242;-64
2022/12/05 07:55:56;;;;;;;19.97;13.83;;;;;;;3.67;100.00;101307.00;5084304;28;20238;-62
2022/12/05 07:58:23;;;;;;;20.50;14.43;;;;;;;3.72;100.00;101302.84;5059442;28;20268;-64
2022/12/05 08:00:49;;;;;;;20.97;14.60;;;;;;;3.63;100.00;101311.19;5076044;28;20739;-62
2022/12/05 08:03:16;;;;;;;17.70;12.40;;;;;;;3.82;100.00;101315.34;5078386;28;20673;-63
2022/12/05 08:05:43;;;;;;;20.00;14.63;;;;;;;3.59;100.00;101309.31;5076484;28;20307;-63
2022/12/05 08:08:10;;;;;;;19.57;13.87;;;;;;;3.76;100.00;101310.81;5077536;28;20707;-64
2022/12/05 08:10:37;;;;;;;18.17;12.63;;;;;;;3.93;100.00;101316.63;5078529;28;20714;-64
2022/12/05 08:13:06;;;;;;;23.50;13.13;;;;;;;3.91;100.00;101314.78;5068150;28;20308;-64
2022/12/05 08:15:34;;;;;;;18.43;13.07;;;;;;;3.59;100.00;101311.94;5069011;28;20226;-65
2022/12/05 08:18:01;;;;;;;18.77;13.37;;;;;;;3.48;100.00;101319.31;5078434;28;20278;-66
2022/12/05 08:20:29;;;;;;;16.73;12.10;;;;;;;3.53;100.00;101314.28;5075076;28;20251;-65
2022/12/05 08:22:56;;;;;;;18.33;12.30;;;;;;;3.51;100.00;101319.44;5078420;28;20321;-65
2022/12/05 08:25:23;;;;;;;18.93;12.47;;;;;;;3.69;100.00;101319.22;5079198;28;20241;-64
2022/12/05 08:27:49;;;;;;;17.53;13.03;;;;;;;3.76;100.00;101318.63;5076566;28;20241;-63
2022/12/05 08:30:18;;;;;;;16.20;12.20;;;;;;;3.87;100.00;101318.13;5061130;28;20710;-63
2022/12/05 08:32:44;;;;;;;17.83;12.70;;;;;;;3.92;100.00;101317.44;5058887;28;20254;-63
2022/12/05 08:35:13;;;;;;;18.70;13.90;;;;;;;3.82;100.00;101318.81;5065797;28;20232;-64
2022/12/05 08:37:40;;;;;;;18.70;14.43;;;;;;;3.56;100.00;101317.88;5077425;28;20345;-64
2022/12/05 08:40:08;;;;;;;19.00;13.77;;;;;;;3.63;100.00;101319.00;5079490;28;20233;-64
2022/12/05 08:42:35;;;;;;;16.07;12.27;;;;;;;3.68;100.00;101317.44;5082085;28;20240;-64
2022/12/05 08:45:02;;;;;;;19.10;13.87;;;;;;;3.65;100.00;101317.34;5073330;28;20723;-65
2022/12/05 08:47:30;;;;;;;17.60;13.63;;;;;;;3.58;100.00;101310.16;5058866;28;20234;-67
2022/12/05 08:49:57;;;;;;;21.20;13.33;;;;;;;3.48;100.00;101313.25;5062819;28;20260;-65
2022/12/05 08:52:23;;;;;;;16.37;12.77;;;;;;;3.81;100.00;101309.25;5071538;28;20302;-65
2022/12/05 08:54:50;;;;;;;16.70;13.57;;;;;;;3.65;100.00;101317.34;5072313;28;20691;-66
2022/12/05 08:57:17;;;;;;;18.57;13.00;;;;;;;3.66;100.00;101319.09;5062932;28;20304;-64
2022/12/05 08:59:44;;;;;;;25.90;12.47;;;;;;;3.56;100.00;101319.59;5057688;28;20705;-66
2022/12/05 09:02:11;;;;;;;18.20;12.90;;;;;;;3.76;100.00;101313.41;5062077;28;20324;-63
2022/12/05 09:04:39;;;;;;;16.77;13.97;;;;;;;3.79;100.00;101304.81;5057685;28;20750;-62
2022/12/05 09:07:07;;;;;;;20.73;14.23;;;;;;;3.66;100.00;101316.50;5054500;28;20239;-63
2022/12/05 09:09:34;;;;;;;20.03;13.77;;;;;;;3.69;100.00;101313.16;5052691;28;20673;-63
2022/12/05 09:12:00;;;;;;;18.43;13.40;;;;;;;3.64;100.00;101312.97;5053575;28;20234;-62
2022/12/05 09:14:31;;;;;;;23.00;14.93;;;;;;;3.60;100.00;101316.28;5057276;28;20238;-63
2022/12/05 09:16:58;;;;;;;17.93;13.40;;;;;;;3.55;100.00;101310.06;5059346;28;20236;-64
2022/12/05 09:19:26;;;;;;;21.07;13.83;;;;;;;3.62;100.00;101312.03;5078298;28;20236;-64
2022/12/05 09:21:55;;;;;;;20.37;13.80;;;;;;;3.79;100.00;101316.13;5078255;28;22611;-63
2022/12/05 09:24:22;;;;;;;19.07;12.53;;;;;;;3.80;100.00;101312.69;5072662;28;20717;-64
2022/12/05 09:26:48;;;;;;;19.70;12.43;;;;;;;3.93;100.00;101318.31;5065559;28;20227;-64
2022/12/05 09:29:15;;;;;;;18.70;13.47;;;;;;;3.94;100.00;101307.09;5057505;28;20234;-64
2022/12/05 09:31:42;;;;;;;16.40;12.83;;;;;;;3.86;100.00;101308.53;5062607;28;20421;-64
2022/12/05 09:34:12;;;;;;;20.77;12.90;;;;;;;3.77;100.00;101309.97;5057502;28;20249;-64
2022/12/05 09:36:39;;;;;;;16.23;12.00;;;;;;;3.88;100.00;101305.16;5074060;28;20256;-65
2022/12/05 09:39:07;;;;;;;16.27;12.57;;;;;;;3.83;100.00;101307.63;5067654;28;20262;-63
2022/12/05 09:42:07;;;;;;;17.70;12.77;;;;;;;3.62;100.00;101312.03;5055627;28;20234;-66
2022/12/05 09:44:42;;;;;;;13.77;11.13;;;;;;;3.62;100.00;101309.44;5075666;28;20225;-64
2022/12/05 09:47:16;;;;;;;19.17;13.47;;;;;;;3.53;100.00;101303.91;5062877;28;20229;-64
2022/12/05 09:49:47;;;;;;;16.53;12.77;;;;;;;3.73;100.00;101305.50;5065396;28;20249;-64
2022/12/05 09:52:23;;;;;;;15.23;12.00;;;;;;;3.74;100.00;101312.47;5059200;28;20723;-65
2022/12/05 09:54:52;;;;;;;18.13;12.10;;;;;;;3.74;100.00;101302.06;5061959;28;20245;-64
2022/12/05 09:57:23;;;;;;;22.13;13.50;;;;;;;4.03;100.00;101302.22;5059456;28;20235;-62
2022/12/05 09:59:49;;;;;;;20.67;12.80;;;;;;;4.22;100.00;101296.84;5048303;28;20313;-63
2022/12/05 10:02:26;;;;;;;18.97;12.60;;;;;;;4.37;100.00;101300.78;5069339;28;20237;-69
2022/12/05 10:04:57;;;;;;;19.23;12.20;;;;;;;4.36;100.00;101301.63;5079817;28;20881;-68
2022/12/05 10:07:29;;;;;;;19.17;12.83;;;;;;;4.22;100.00;101302.03;5078405;28;20234;-69
2022/12/05 10:10:09;;;;;;;16.90;12.87;;;;;;;4.15;100.00;101302.66;5079233;28;20239;-68
2022/12/05 10:12:54;;;;;;;17.50;12.10;;;;;;;4.04;100.00;101302.28;5070209;28;20672;-71
2022/12/05 10:15:29;;;;;;;18.70;13.37;;;;;;;3.95;100.00;101298.47;5072635;28;20240;-60
2022/12/05 10:17:59;;;;;;;18.03;12.50;;;;;;;3.99;100.00;101297.75;5076989;28;20365;-61
2022/12/05 10:20:28;;;;;;;15.37;11.90;;;;;;;3.90;100.00;101292.25;5068597;28;20250;-67
2022/12/05 10:22:57;;;;;;;24.40;14.00;;;;;;;3.85;100.00;101299.88;5078846;28;20292;-68
2022/12/05 10:25:27;;;;;;;23.43;13.53;;;;;;;3.86;100.00;101296.47;5071691;28;20242;-67
2022/12/05 10:27:57;;;;;;;23.33;14.07;;;;;;;4.10;100.00;101296.41;5078289;28;20650;-71
2022/12/05 10:30:25;;;;;;;17.70;13.47;;;;;;;4.03;100.00;101297.91;5063982;28;20233;-62
2022/12/05 10:32:54;;;;;;;19.80;13.37;;;;;;;4.21;100.00;101300.28;5062918;28;20916;-62
2022/12/05 10:35:23;;;;;;;17.77;12.83;;;;;;;4.12;100.00;101307.75;5068457;28;20401;-67
2022/12/05 10:37:51;;;;;;;17.73;13.87;;;;;;;3.99;100.00;101309.03;5058625;28;20232;-67
2022/12/05 10:40:18;;;;;;;20.80;14.23;;;;;;;4.18;100.00;101299.28;5066948;28;20296;-69
2022/12/05 10:42:47;;;;;;;19.97;12.70;;;;;;;4.05;100.00;101298.84;5065002;28;20313;-66
2022/12/05 10:45:16;;;;;;;20.33;14.20;;;;;;;4.11;100.00;101293.00;5079177;28;20226;-68
2022/12/05 10:47:43;;;;;;;19.70;13.73;;;;;;;4.18;100.00;101284.56;5076917;28;20234;-65
2022/12/05 10:50:23;;;;;;;17.63;12.60;;;;;;;4.23;100.00;101283.00;5080180;28;20226;-65
2022/12/05 10:52:52;;;;;;;19.53;12.63;;;;;;;4.14;100.00;101282.72;5083003;28;20691;-64
2022/12/05 10:55:19;;;;;;;14.63;12.20;;;;;;;4.13;100.00;101280.03;5072784;28;20341;-65
2022/12/05 10:57:51;;;;;;;24.50;14.00;;;;;;;4.18;100.00;101288.88;5071885;28;20269;-65
2022/12/05 11:00:22;;;;;;;17.40;12.87;;;;;;;4.08;100.00;101287.69;5074274;28;20232;-65
2022/12/05 11:02:49;;;;;;;15.90;11.63;;;;;;;3.93;100.00;101290.66;5073954;28;20245;-65
2022/12/05 11:05:27;;;;;;;20.40;13.37;;;;;;;3.77;100.00;101286.59;5062280;28;20234;-65
2022/12/05 11:07:54;;;;;;;20.37;12.37;;;;;;;3.95;100.00;101288.09;5083614;28;20352;-64
2022/12/05 11:10:22;;;;;;;23.07;14.80;;;;;;;3.73;100.00;101287.34;5076105;28;20286;-64
2022/12/05 11:12:51;;;;;;;14.50;11.70;;;;;;;3.65;100.00;101283.59;5079089;28;20261;-66
2022/12/05 11:15:24;;;;;;;16.73;11.83;;;;;;;3.76;100.00;101279.66;5081991;27;20302;-67
2022/12/05 11:17:51;;;;;;;19.07;13.67;;;;;;;3.87;100.00;101281.75;5081381;28;20341;-67
2022/12/05 11:20:37;;;;;;;17.63;12.87;;;;;;;3.80;100.00;101284.13;5081618;28;20685;-63
2022/12/05 11:23:17;;;;;;;19.00;13.53;;;;;;;3.91;100.00;101286.22;5077958;28;20317;-58